createdAt,value
2022-08-30T00:01:36.268Z,14.94
2022-08-30T00:04:02.963Z,15.11
2022-08-30T00:06:29.954Z,15.12
2022-08-30T00:08:56.714Z,15.05
2022-08-30T00:11:27.884Z,15.03
2022-08-30T00:13:56.262Z,15.12
2022-08-30T00:16:24.029Z,14.87
2022-08-30T00:18:50.929Z,14.86
2022-08-30T00:21:18.870Z,14.90
2022-08-30T00:23:45.231Z,14.86
2022-08-30T00:26:11.603Z,14.81
2022-08-30T00:28:38.009Z,14.72
2022-08-30T00:31:05.150Z,14.72
2022-08-30T00:33:31.678Z,14.59
2022-08-30T00:35:58.658Z,14.61
2022-08-30T00:38:25.110Z,14.65
2022-08-30T00:40:52.676Z,14.60
2022-08-30T00:43:32.531Z,14.58
2022-08-30T00:45:59.004Z,14.51
2022-08-30T00:48:25.776Z,14.50
2022-08-30T00:50:56.178Z,14.48
2022-08-30T00:53:29.000Z,14.41
2022-08-30T00:55:57.400Z,14.43
2022-08-30T00:58:30.911Z,14.38
2022-08-30T01:01:00.049Z,14.47
2022-08-30T01:03:26.657Z,14.45
2022-08-30T01:05:53.400Z,14.30
2022-08-30T01:08:20.575Z,14.42
2022-08-30T01:10:47.091Z,14.47
2022-08-30T01:13:15.361Z,14.47
2022-08-30T01:15:43.592Z,14.40
2022-08-30T01:18:10.428Z,14.36
2022-08-30T01:21:07.361Z,14.27
2022-08-30T01:23:38.333Z,14.22
2022-08-30T01:26:06.655Z,14.18
2022-08-30T01:28:34.182Z,14.21
2022-08-30T01:31:00.935Z,14.20
2022-08-30T01:33:27.387Z,14.17
2022-08-30T01:36:00.398Z,14.16
2022-08-30T01:38:35.291Z,14.20
2022-08-30T01:41:09.045Z,14.09
2022-08-30T01:43:35.486Z,14.13
2022-08-30T01:46:02.033Z,14.09
2022-08-30T01:48:31.193Z,14.08
2022-08-30T01:50:58.059Z,14.05
2022-08-30T01:53:24.471Z,13.99
2022-08-30T01:55:50.887Z,14.05
2022-08-30T01:58:17.248Z,14.08
2022-08-30T02:00:43.638Z,14.05
2022-08-30T02:03:09.995Z,14.08
2022-08-30T02:05:36.404Z,14.01
2022-08-30T02:08:03.044Z,14.07
2022-08-30T02:10:29.476Z,14.07
2022-08-30T02:12:55.845Z,14.05
2022-08-30T02:15:22.231Z,14.10
2022-08-30T02:17:48.567Z,14.16
2022-08-30T02:20:14.918Z,14.07
2022-08-30T02:22:47.628Z,14.14
2022-08-30T02:25:20.949Z,14.16
2022-08-30T02:27:47.827Z,14.20
2022-08-30T02:30:14.310Z,14.19
2022-08-30T02:32:40.633Z,14.14
2022-08-30T02:35:07.324Z,14.17
2022-08-30T02:37:33.683Z,14.17
2022-08-30T02:40:00.048Z,14.05
2022-08-30T02:42:26.460Z,14.04
2022-08-30T02:44:52.820Z,13.88
2022-08-30T02:47:19.187Z,13.76
2022-08-30T02:49:45.561Z,13.90
2022-08-30T02:52:11.912Z,13.89
2022-08-30T02:54:38.295Z,13.89
2022-08-30T02:57:05.078Z,13.92
2022-08-30T02:59:31.954Z,13.94
2022-08-30T03:01:58.849Z,13.94
2022-08-30T03:04:26.543Z,13.84
2022-08-30T03:06:53.297Z,13.93
2022-08-30T03:09:19.668Z,13.82
2022-08-30T03:11:45.994Z,13.68
2022-08-30T03:14:12.347Z,13.74
2022-08-30T03:16:38.797Z,13.96
2022-08-30T03:19:05.258Z,13.95
2022-08-30T03:21:31.621Z,13.95
2022-08-30T03:23:57.970Z,13.83
2022-08-30T03:26:24.332Z,13.76
2022-08-30T03:28:50.660Z,13.65
2022-08-30T03:31:17.072Z,13.59
2022-08-30T03:33:43.454Z,13.47
2022-08-30T03:36:10.681Z,13.39
2022-08-30T03:38:37.118Z,13.77
2022-08-30T03:41:03.862Z,13.53
2022-08-30T03:43:32.507Z,13.50
2022-08-30T03:46:02.927Z,13.55
2022-08-30T03:48:30.025Z,13.46
2022-08-30T03:50:56.821Z,13.83
2022-08-30T03:53:25.646Z,13.87
2022-08-30T03:55:54.100Z,13.77
2022-08-30T03:58:22.143Z,13.66
2022-08-30T04:00:48.593Z,13.64
2022-08-30T04:03:15.633Z,13.68
2022-08-30T04:05:42.150Z,13.71
2022-08-30T04:08:08.495Z,13.64
2022-08-30T04:10:35.395Z,13.64
2022-08-30T04:13:01.788Z,13.54
2022-08-30T04:15:28.188Z,13.57
2022-08-30T04:17:54.644Z,13.59
2022-08-30T04:20:21.468Z,13.61
2022-08-30T04:22:47.823Z,13.62
2022-08-30T04:25:15.879Z,13.59
2022-08-30T04:27:43.005Z,13.53
2022-08-30T04:30:10.066Z,13.45
2022-08-30T04:32:36.389Z,13.37
2022-08-30T04:35:02.830Z,13.18
2022-08-30T04:37:29.220Z,13.46
2022-08-30T04:39:59.725Z,13.39
2022-08-30T04:42:27.630Z,13.52
2022-08-30T04:44:54.042Z,13.53
2022-08-30T04:47:20.448Z,13.50
2022-08-30T04:49:46.774Z,13.50
2022-08-30T04:52:13.161Z,13.17
2022-08-30T04:54:39.527Z,13.23
2022-08-30T04:57:06.653Z,13.36
2022-08-30T04:59:33.226Z,13.52
2022-08-30T05:02:00.103Z,13.63
2022-08-30T05:04:26.555Z,13.54
2022-08-30T05:06:52.957Z,13.51
2022-08-30T05:09:19.323Z,13.55
2022-08-30T05:11:45.645Z,13.62
2022-08-30T05:14:11.997Z,13.73
2022-08-30T05:16:38.428Z,13.56
2022-08-30T05:19:05.387Z,13.81
2022-08-30T05:21:31.806Z,14.05
2022-08-30T05:24:00.429Z,13.88
2022-08-30T05:26:31.811Z,13.76
2022-08-30T05:28:58.948Z,13.97
2022-08-30T05:31:36.565Z,13.69
2022-08-30T05:34:04.287Z,13.48
2022-08-30T05:36:33.467Z,13.63
2022-08-30T05:38:59.882Z,13.31
2022-08-30T05:41:27.187Z,13.65
2022-08-30T05:43:55.584Z,13.91
2022-08-30T05:46:22.228Z,13.83
2022-08-30T05:48:49.981Z,13.79
2022-08-30T05:51:22.279Z,13.44
2022-08-30T05:53:50.204Z,13.62
2022-08-30T05:56:19.862Z,13.45
2022-08-30T05:58:46.950Z,13.83
2022-08-30T06:01:44.218Z,13.48
2022-08-30T06:04:12.138Z,13.56
2022-08-30T06:06:40.703Z,13.99
2022-08-30T06:09:09.369Z,14.05
2022-08-30T06:11:36.304Z,14.24
2022-08-30T06:14:03.965Z,14.39
2022-08-30T06:16:30.853Z,14.22
2022-08-30T06:18:58.827Z,14.11
2022-08-30T06:21:32.086Z,14.14
2022-08-30T06:23:58.803Z,14.44
2022-08-30T06:26:26.149Z,14.58
2022-08-30T06:28:53.167Z,14.73
2022-08-30T06:31:21.303Z,14.24
2022-08-30T06:33:48.338Z,14.53
2022-08-30T06:36:18.185Z,14.78
2022-08-30T06:38:45.511Z,14.61
2022-08-30T06:41:17.389Z,14.44
2022-08-30T06:43:48.669Z,14.79
2022-08-30T06:46:23.991Z,14.73
2022-08-30T06:48:50.360Z,14.89
2022-08-30T06:51:21.897Z,14.89
2022-08-30T06:53:50.150Z,15.47
2022-08-30T06:56:18.971Z,15.81
2022-08-30T06:58:46.409Z,15.88
2022-08-30T07:01:22.186Z,15.37
2022-08-30T07:03:49.079Z,15.26
2022-08-30T07:06:15.987Z,14.72
2022-08-30T07:08:45.569Z,14.93
2022-08-30T07:11:11.923Z,15.07
2022-08-30T07:13:38.618Z,15.42
2022-08-30T07:16:13.306Z,15.51
2022-08-30T07:18:40.459Z,15.75
2022-08-30T07:21:16.006Z,15.79
2022-08-30T07:23:43.397Z,15.96
2022-08-30T07:26:13.160Z,16.02
2022-08-30T07:28:41.542Z,16.07
2022-08-30T07:33:40.078Z,15.83
2022-08-30T07:36:06.792Z,15.79
2022-08-30T07:38:33.351Z,15.88
2022-08-30T07:41:00.107Z,16.46
2022-08-30T07:43:27.609Z,16.71
2022-08-30T07:45:54.494Z,16.31
2022-08-30T07:48:20.866Z,16.89
2022-08-30T07:50:47.263Z,16.97
2022-08-30T07:53:13.760Z,16.52
2022-08-30T07:55:40.420Z,16.78
2022-08-30T07:58:06.797Z,17.47
2022-08-30T08:00:33.275Z,17.63
2022-08-30T08:03:05.690Z,17.90
2022-08-30T08:05:32.109Z,17.66
2022-08-30T08:07:58.454Z,18.42
2022-08-30T08:10:24.787Z,18.59
2022-08-30T08:12:51.243Z,18.21
2022-08-30T08:15:18.591Z,18.31
2022-08-30T08:17:44.934Z,18.11
2022-08-30T08:20:11.443Z,17.98
2022-08-30T08:22:40.015Z,17.00
2022-08-30T08:25:07.004Z,17.47
2022-08-30T08:27:33.343Z,17.62
2022-08-30T08:29:59.759Z,17.60
2022-08-30T08:32:26.326Z,17.63
2022-08-30T08:34:52.723Z,17.92
2022-08-30T08:37:20.853Z,17.95
2022-08-30T08:39:50.236Z,17.82
2022-08-30T08:42:25.074Z,17.98
2022-08-30T08:45:17.572Z,17.91
2022-08-30T08:47:53.001Z,17.67
2022-08-30T08:50:21.199Z,17.59
2022-08-30T08:52:58.585Z,17.68
2022-08-30T08:55:25.764Z,17.58
2022-08-30T08:57:52.127Z,17.61
2022-08-30T09:00:18.590Z,17.60
2022-08-30T09:02:56.906Z,17.73
2022-08-30T09:05:27.620Z,17.55
2022-08-30T09:08:09.539Z,17.92
2022-08-30T09:10:49.944Z,18.03
2022-08-30T09:16:05.244Z,18.00
2022-08-30T09:18:45.892Z,18.09
2022-08-30T09:21:13.971Z,18.56
2022-08-30T09:23:56.006Z,18.64
2022-08-30T09:26:35.925Z,18.14
2022-08-30T09:29:02.910Z,18.52
2022-08-30T09:31:45.058Z,18.55
2022-08-30T09:34:18.328Z,18.47
2022-08-30T09:36:47.079Z,18.41
2022-08-30T09:39:31.283Z,18.53
2022-08-30T09:42:12.678Z,18.40
2022-08-30T09:44:39.554Z,18.27
2022-08-30T09:47:31.587Z,18.36
2022-08-30T09:50:12.342Z,18.40
2022-08-30T09:52:49.890Z,18.57
2022-08-30T09:55:33.121Z,18.60
2022-08-30T09:58:25.707Z,18.77
2022-08-30T10:01:06.682Z,18.80
2022-08-30T10:03:51.957Z,18.95
2022-08-30T10:06:33.670Z,18.85
2022-08-30T10:09:12.184Z,18.87
2022-08-30T10:11:41.529Z,18.29
2022-08-30T10:14:45.031Z,19.28
2022-08-30T10:17:53.159Z,19.17
2022-08-30T10:20:29.265Z,19.42
2022-08-30T10:23:04.806Z,19.67
2022-08-30T10:25:54.960Z,20.00
2022-08-30T10:28:40.913Z,20.06
2022-08-30T10:31:32.262Z,19.50
2022-08-30T10:34:08.454Z,20.01
2022-08-30T10:36:44.374Z,20.44
2022-08-30T10:39:20.230Z,20.24
2022-08-30T10:41:54.469Z,19.94
2022-08-30T10:44:29.458Z,19.88
2022-08-30T10:47:10.841Z,19.98
2022-08-30T10:49:44.358Z,20.15
2022-08-30T10:52:23.374Z,20.33
2022-08-30T10:55:05.886Z,20.23
2022-08-30T10:57:32.501Z,19.76
2022-08-30T11:03:10.998Z,20.45
2022-08-30T11:06:03.094Z,20.39
2022-08-30T11:09:05.771Z,20.60
2022-08-30T11:11:58.196Z,20.73
2022-08-30T11:14:25.583Z,21.19
2022-08-30T11:16:56.593Z,20.89
2022-08-30T11:19:37.924Z,20.97
2022-08-30T11:22:35.566Z,20.79
2022-08-30T11:25:49.067Z,20.91
2022-08-30T11:28:36.074Z,21.08
2022-08-30T11:31:12.377Z,20.97
2022-08-30T11:33:42.196Z,21.03
2022-08-30T11:36:28.147Z,21.46
2022-08-30T11:38:55.238Z,21.09
2022-08-30T11:41:46.223Z,21.39
2022-08-30T11:44:28.296Z,21.56
2022-08-30T11:46:57.111Z,20.98
2022-08-30T11:50:09.690Z,21.11
2022-08-30T11:53:09.394Z,21.63
2022-08-30T11:55:56.185Z,21.93
2022-08-30T11:58:36.582Z,21.12
2022-08-30T12:01:40.832Z,21.81
2022-08-30T12:04:08.927Z,21.51
2022-08-30T12:06:41.415Z,21.32
2022-08-30T12:09:31.009Z,21.40
2022-08-30T12:12:20.983Z,21.36
2022-08-30T12:14:52.657Z,21.60
2022-08-30T12:17:27.284Z,21.55
2022-08-30T12:19:56.279Z,21.52
2022-08-30T12:22:22.913Z,21.62
2022-08-30T12:24:52.649Z,21.62
2022-08-30T12:27:22.107Z,21.22
2022-08-30T12:29:55.333Z,21.26
2022-08-30T12:32:26.199Z,21.59
2022-08-30T12:34:56.653Z,21.78
2022-08-30T12:37:27.114Z,21.50
2022-08-30T12:40:08.007Z,21.33
2022-08-30T12:42:38.029Z,21.11
2022-08-30T12:45:12.829Z,21.69
2022-08-30T12:47:53.478Z,21.83
2022-08-30T12:50:28.207Z,22.10
2022-08-30T12:52:59.888Z,21.50
2022-08-30T12:55:30.472Z,21.92
2022-08-30T12:58:09.047Z,21.84
2022-08-30T13:00:41.605Z,21.34
2022-08-30T13:03:33.726Z,21.52
2022-08-30T13:06:00.205Z,22.10
2022-08-30T13:08:36.341Z,22.23
2022-08-30T13:11:10.195Z,21.85
2022-08-30T13:13:38.651Z,21.38
2022-08-30T13:16:11.065Z,21.86
2022-08-30T13:18:38.064Z,22.28
2022-08-30T13:21:26.111Z,22.37
2022-08-30T13:24:06.090Z,22.08
2022-08-30T13:26:37.860Z,21.83
2022-08-30T13:29:10.272Z,22.48
2022-08-30T13:31:37.233Z,21.73
2022-08-30T13:34:03.663Z,22.03
2022-08-30T13:36:37.706Z,22.07
2022-08-30T13:39:04.951Z,21.72
2022-08-30T13:41:34.199Z,21.61
2022-08-30T13:44:16.623Z,22.26
2022-08-30T13:46:53.378Z,22.69
2022-08-30T13:49:43.457Z,22.47
2022-08-30T13:52:20.777Z,21.79
2022-08-30T13:54:53.237Z,22.24
2022-08-30T14:00:14.503Z,22.56
2022-08-30T14:02:45.083Z,22.08
2022-08-30T14:05:46.348Z,22.30
2022-08-30T14:08:00.872Z,22.23
2022-08-30T14:10:30.867Z,22.41
2022-08-30T14:13:07.810Z,21.81
2022-08-30T14:15:38.951Z,22.30
2022-08-30T14:18:06.964Z,22.95
2022-08-30T14:20:34.324Z,23.30
2022-08-30T14:23:00.978Z,23.00
2022-08-30T14:25:27.592Z,22.92
2022-08-30T14:27:55.702Z,22.63
2022-08-30T14:30:22.672Z,22.76
2022-08-30T14:32:49.042Z,22.42
2022-08-30T14:35:15.656Z,21.78
2022-08-30T14:37:42.022Z,22.50
2022-08-30T14:40:08.895Z,22.49
2022-08-30T14:42:35.323Z,22.94
2022-08-30T14:45:01.751Z,22.46
2022-08-30T14:47:29.860Z,22.44
2022-08-30T14:49:56.779Z,22.75
2022-08-30T14:52:23.568Z,22.59
2022-08-30T14:54:53.149Z,22.73
2022-08-30T14:57:21.823Z,22.66
2022-08-30T14:59:48.231Z,22.39
2022-08-30T15:02:14.567Z,22.69
2022-08-30T15:04:40.906Z,22.78
2022-08-30T15:07:11.773Z,22.77
2022-08-30T15:09:39.987Z,23.17
2022-08-30T15:12:06.431Z,23.10
2022-08-30T15:14:34.438Z,22.60
2022-08-30T15:17:01.282Z,22.88
2022-08-30T15:19:29.726Z,22.43
2022-08-30T15:22:00.556Z,22.18
2022-08-30T15:24:29.920Z,22.53
2022-08-30T15:26:57.579Z,22.02
2022-08-30T15:29:26.183Z,22.52
2022-08-30T15:31:53.039Z,22.36
2022-08-30T15:34:22.101Z,22.51
2022-08-30T15:36:54.604Z,22.62
2022-08-30T15:39:20.967Z,22.51
2022-08-30T15:41:47.969Z,22.56
2022-08-30T15:44:22.250Z,22.70
2022-08-30T15:46:48.642Z,22.90
2022-08-30T15:49:21.442Z,22.63
2022-08-30T15:51:51.645Z,22.33
2022-08-30T15:54:22.304Z,22.60
2022-08-30T15:56:48.665Z,22.69
2022-08-30T15:59:15.560Z,22.68
2022-08-30T16:01:43.100Z,22.83
2022-08-30T16:04:10.007Z,22.82
2022-08-30T16:06:39.093Z,22.22
2022-08-30T16:09:06.784Z,22.50
2022-08-30T16:11:33.441Z,21.94
2022-08-30T16:14:01.124Z,22.29
2022-08-30T16:16:27.953Z,22.44
2022-08-30T16:18:54.698Z,22.33
2022-08-30T16:21:27.946Z,21.93
2022-08-30T16:23:57.100Z,22.22
2022-08-30T16:26:24.441Z,22.34
2022-08-30T16:28:51.696Z,22.26
2022-08-30T16:31:20.133Z,21.95
2022-08-30T16:33:47.673Z,22.19
2022-08-30T16:36:20.383Z,22.20
2022-08-30T16:38:47.953Z,22.03
2022-08-30T16:41:21.024Z,21.88
2022-08-30T16:43:49.608Z,21.59
2022-08-30T16:46:23.404Z,21.77
2022-08-30T16:48:56.100Z,21.91
2022-08-30T16:51:25.383Z,21.92
2022-08-30T16:53:54.730Z,21.88
2022-08-30T16:56:22.339Z,21.56
2022-08-30T16:58:56.372Z,21.51
2022-08-30T17:01:27.596Z,21.46
2022-08-30T17:03:53.989Z,21.80
2022-08-30T17:06:20.613Z,21.55
2022-08-30T17:08:47.080Z,21.80
2022-08-30T17:11:14.478Z,21.77
2022-08-30T17:13:41.219Z,21.79
2022-08-30T17:16:08.365Z,21.59
2022-08-30T17:18:35.716Z,21.78
2022-08-30T17:21:04.136Z,21.97
2022-08-30T17:23:34.191Z,21.82
2022-08-30T17:26:00.686Z,21.62
2022-08-30T17:28:27.554Z,21.57
2022-08-30T17:30:54.270Z,21.35
2022-08-30T17:33:20.656Z,21.25
2022-08-30T17:35:47.072Z,21.16
2022-08-30T17:38:15.259Z,21.04
2022-08-30T17:40:41.778Z,20.97
2022-08-30T17:43:08.179Z,20.76
2022-08-30T17:45:34.595Z,20.63
2022-08-30T17:48:01.914Z,20.41
2022-08-30T17:50:28.329Z,20.38
2022-08-30T17:53:00.074Z,20.52
2022-08-30T17:55:26.459Z,20.37
2022-08-30T17:57:57.093Z,20.28
2022-08-30T18:00:27.204Z,20.22
2022-08-30T18:02:53.665Z,20.02
2022-08-30T18:05:24.774Z,20.07
2022-08-30T18:07:52.058Z,19.98
2022-08-30T18:10:18.490Z,19.98
2022-08-30T18:12:44.840Z,19.72
2022-08-30T18:15:15.630Z,19.51
2022-08-30T18:17:42.575Z,19.51
2022-08-30T18:20:11.940Z,19.62
2022-08-30T18:22:38.311Z,19.57
2022-08-30T18:25:06.020Z,19.43
2022-08-30T18:27:32.444Z,19.39
2022-08-30T18:29:59.018Z,19.30
2022-08-30T18:32:32.883Z,19.11
2022-08-30T18:35:04.758Z,18.99
2022-08-30T18:37:32.114Z,19.20
2022-08-30T18:39:58.865Z,19.13
2022-08-30T18:42:27.400Z,19.03
2022-08-30T18:44:53.870Z,19.02
2022-08-30T18:47:23.009Z,19.05
2022-08-30T18:49:49.868Z,18.88
2022-08-30T18:52:17.022Z,18.97
2022-08-30T18:54:51.757Z,18.97
2022-08-30T18:57:19.722Z,18.78
2022-08-30T18:59:46.054Z,18.78
2022-08-30T19:02:14.878Z,18.94
2022-08-30T19:04:42.881Z,18.85
2022-08-30T19:07:11.609Z,18.84
2022-08-30T19:09:38.270Z,18.77
2022-08-30T19:12:05.191Z,18.85
2022-08-30T19:14:36.031Z,18.55
2022-08-30T19:17:06.876Z,18.72
2022-08-30T19:19:34.987Z,18.78
2022-08-30T19:22:02.687Z,18.73
2022-08-30T19:24:29.039Z,18.62
2022-08-30T19:26:55.515Z,18.67
2022-08-30T19:29:21.886Z,18.76
2022-08-30T19:31:50.666Z,18.59
2022-08-30T19:34:18.773Z,18.61
2022-08-30T19:36:45.192Z,18.46
2022-08-30T19:39:11.631Z,18.47
2022-08-30T19:41:38.351Z,18.45
2022-08-30T19:44:05.753Z,18.49
2022-08-30T19:46:32.890Z,18.31
2022-08-30T19:48:59.314Z,18.41
2022-08-30T19:51:25.653Z,18.57
2022-08-30T19:53:52.989Z,18.36
2022-08-30T19:56:24.056Z,18.34
2022-08-30T19:58:50.422Z,18.30
2022-08-30T20:01:32.382Z,18.17
2022-08-30T20:03:59.993Z,18.16
2022-08-30T20:06:26.343Z,18.13
2022-08-30T20:08:55.080Z,18.29
2022-08-30T20:11:23.956Z,18.29
2022-08-30T20:13:50.571Z,18.30
2022-08-30T20:16:17.213Z,18.25
2022-08-30T20:18:44.360Z,18.19
2022-08-30T20:21:13.268Z,17.91
2022-08-30T20:23:41.310Z,18.06
2022-08-30T20:26:08.119Z,18.06
2022-08-30T20:28:34.550Z,18.24
2022-08-30T20:31:04.068Z,18.10
2022-08-30T20:33:30.458Z,18.13
2022-08-30T20:36:00.727Z,18.06
2022-08-30T20:38:27.569Z,18.13
2022-08-30T20:40:56.795Z,17.89
2022-08-30T20:43:25.695Z,17.77
2022-08-30T20:45:52.693Z,17.69
2022-08-30T20:48:19.736Z,17.65
2022-08-30T20:50:46.225Z,17.99
2022-08-30T20:53:13.253Z,17.88
2022-08-30T20:55:44.841Z,17.94
2022-08-30T20:58:11.394Z,17.72
2022-08-30T21:00:38.407Z,17.55
2022-08-30T21:03:06.692Z,17.83
2022-08-30T21:05:52.528Z,17.71
2022-08-30T21:08:19.030Z,17.78
2022-08-30T21:10:45.493Z,17.67
2022-08-30T21:13:11.890Z,17.49
2022-08-30T21:15:38.539Z,17.50
2022-08-30T21:18:05.495Z,17.53
2022-08-30T21:20:31.872Z,17.35
2022-08-30T21:22:58.214Z,17.24
2022-08-30T21:25:24.561Z,17.35
2022-08-30T21:27:50.913Z,17.05
2022-08-30T21:30:17.372Z,17.02
2022-08-30T21:32:43.702Z,17.37
2022-08-30T21:35:10.175Z,17.09
2022-08-30T21:37:36.574Z,17.15
2022-08-30T21:40:03.851Z,17.29
2022-08-30T21:42:30.229Z,17.09
2022-08-30T21:44:56.699Z,16.97
2022-08-30T21:47:23.967Z,17.02
2022-08-30T21:49:50.413Z,16.94
2022-08-30T21:52:16.791Z,16.87
2022-08-30T21:54:43.215Z,16.75
2022-08-30T21:57:09.661Z,16.81
2022-08-30T21:59:35.995Z,17.09
2022-08-30T22:02:02.381Z,16.74
2022-08-30T22:04:28.705Z,16.64
2022-08-30T22:06:55.102Z,16.79
2022-08-30T22:09:24.643Z,16.92
2022-08-30T22:11:51.298Z,16.82
2022-08-30T22:14:18.739Z,16.60
2022-08-30T22:16:45.430Z,16.62
2022-08-30T22:19:12.486Z,16.55
2022-08-30T22:21:40.037Z,16.59
2022-08-30T22:24:06.534Z,16.54
2022-08-30T22:26:33.628Z,16.52
2022-08-30T22:29:00.144Z,16.52
2022-08-30T22:31:26.557Z,16.45
2022-08-30T22:33:54.091Z,16.42
2022-08-30T22:36:24.557Z,16.35
2022-08-30T22:39:00.843Z,16.34
2022-08-30T22:41:31.375Z,16.42
2022-08-30T22:43:58.218Z,16.32
2022-08-30T22:46:33.759Z,16.39
2022-08-30T22:49:02.465Z,16.27
2022-08-30T22:51:29.479Z,15.99
2022-08-30T22:53:56.081Z,15.97
2022-08-30T22:56:25.152Z,16.12
2022-08-30T22:58:52.609Z,16.18
2022-08-30T23:01:28.689Z,16.24
2022-08-30T23:03:55.934Z,16.30
2022-08-30T23:06:22.885Z,16.24
2022-08-30T23:08:49.284Z,15.86
2022-08-30T23:11:16.172Z,15.94
2022-08-30T23:13:43.082Z,16.00
2022-08-30T23:16:10.926Z,15.90
2022-08-30T23:18:39.235Z,15.82
2022-08-30T23:21:11.766Z,15.82
2022-08-30T23:23:38.606Z,15.50
2022-08-30T23:26:05.089Z,15.40
2022-08-30T23:28:31.407Z,15.48
2022-08-30T23:31:11.383Z,15.71
2022-08-30T23:33:37.712Z,15.50
2022-08-30T23:36:09.251Z,15.39
2022-08-30T23:38:35.835Z,15.34
2022-08-30T23:41:02.256Z,15.63
2022-08-30T23:43:28.649Z,15.47
2022-08-30T23:45:55.562Z,15.53
2022-08-30T23:48:22.173Z,15.51
2022-08-30T23:50:48.550Z,15.43
2022-08-30T23:53:15.170Z,15.34
2022-08-30T23:55:41.734Z,15.22
2022-08-30T23:58:08.358Z,15.16
